sensor_id;sensor_type;location;lat;lon;timestamp;pressure;altitude;pressure_sealevel;temperature;humidity
67397;BME280;57728;50.448;18.824;2023-05-18T00:01:50;98478.00;;;10.12;76.13
67397;BME280;57728;50.448;18.824;2023-05-18T00:03:54;98459.84;;;10.00;76.14
67397;BME280;57728;50.448;18.824;2023-05-18T00:05:55;98458.75;;;10.07;76.02
67397;BME280;57728;50.448;18.824;2023-05-18T00:08:04;98445.81;;;10.03;75.85
67397;BME280;57728;50.448;18.824;2023-05-18T00:10:07;98443.53;;;10.00;75.86
67397;BME280;57728;50.448;18.824;2023-05-18T00:12:08;98459.56;;;10.14;75.76
67397;BME280;57728;50.448;18.824;2023-05-18T00:14:10;98458.97;;;10.06;75.56
67397;BME280;57728;50.448;18.824;2023-05-18T00:16:12;98438.13;;;9.93;75.74
67397;BME280;57728;50.448;18.824;2023-05-18T00:18:15;98471.09;;;10.10;75.55
67397;BME280;57728;50.448;18.824;2023-05-18T00:20:16;98465.88;;;10.08;75.41
67397;BME280;57728;50.448;18.824;2023-05-18T00:22:19;98467.13;;;10.06;75.42
67397;BME280;57728;50.448;18.824;2023-05-18T00:24:20;98461.94;;;9.97;75.45
67397;BME280;57728;50.448;18.824;2023-05-18T00:26:21;98466.50;;;10.04;75.45
67397;BME280;57728;50.448;18.824;2023-05-18T00:28:26;98446.31;;;9.86;75.33
67397;BME280;57728;50.448;18.824;2023-05-18T00:30:28;98464.22;;;10.01;75.38
67397;BME280;57728;50.448;18.824;2023-05-18T00:32:30;98471.78;;;9.98;75.14
67397;BME280;57728;50.448;18.824;2023-05-18T00:34:32;98420.03;;;9.67;75.11
67397;BME280;57728;50.448;18.824;2023-05-18T00:36:35;98437.13;;;9.74;75.14
67397;BME280;57728;50.448;18.824;2023-05-18T00:38:37;98469.91;;;9.92;75.18
67397;BME280;57728;50.448;18.824;2023-05-18T00:40:38;98453.66;;;9.79;75.26
67397;BME280;57728;50.448;18.824;2023-05-18T00:42:40;98445.72;;;9.71;75.12
67397;BME280;57728;50.448;18.824;2023-05-18T00:44:43;98472.03;;;9.84;75.21
67397;BME280;57728;50.448;18.824;2023-05-18T00:46:45;98477.69;;;9.89;74.98
67397;BME280;57728;50.448;18.824;2023-05-18T00:48:47;98465.78;;;9.83;75.03
67397;BME280;57728;50.448;18.824;2023-05-18T00:50:50;98479.75;;;9.87;75.04
67397;BME280;57728;50.448;18.824;2023-05-18T00:52:52;98470.16;;;9.84;75.09
67397;BME280;57728;50.448;18.824;2023-05-18T00:54:54;98470.56;;;9.81;75.07
67397;BME280;57728;50.448;18.824;2023-05-18T00:56:58;98472.06;;;9.77;74.93
67397;BME280;57728;50.448;18.824;2023-05-18T00:59:02;98485.03;;;9.81;75.08
67397;BME280;57728;50.448;18.824;2023-05-18T01:01:04;98486.06;;;9.80;74.92
67397;BME280;57728;50.448;18.824;2023-05-18T01:03:06;98484.44;;;9.73;74.99
67397;BME280;57728;50.448;18.824;2023-05-18T01:05:11;98483.34;;;9.80;74.93
67397;BME280;57728;50.448;18.824;2023-05-18T01:07:13;98485.03;;;9.75;75.04
67397;BME280;57728;50.448;18.824;2023-05-18T01:09:16;98472.09;;;9.70;74.94
67397;BME280;57728;50.448;18.824;2023-05-18T01:14:15;98489.44;;;9.76;74.90
67397;BME280;57728;50.448;18.824;2023-05-18T01:16:27;98490.47;;;9.75;74.82
67397;BME280;57728;50.448;18.824;2023-05-18T01:18:40;98487.16;;;9.73;74.86
67397;BME280;57728;50.448;18.824;2023-05-18T01:25:49;98478.38;;;9.64;74.68
67397;BME280;57728;50.448;18.824;2023-05-18T01:27:54;98503.66;;;9.71;74.64
67397;BME280;57728;50.448;18.824;2023-05-18T01:29:57;98502.63;;;9.72;74.63
67397;BME280;57728;50.448;18.824;2023-05-18T01:31:59;98481.97;;;9.58;74.60
67397;BME280;57728;50.448;18.824;2023-05-18T01:34:02;98479.84;;;9.60;74.59
67397;BME280;57728;50.448;18.824;2023-05-18T01:36:06;98493.03;;;9.63;74.49
67397;BME280;57728;50.448;18.824;2023-05-18T01:38:08;98509.09;;;9.71;74.47
67397;BME280;57728;50.448;18.824;2023-05-18T01:40:13;98509.09;;;9.71;74.50
67397;BME280;57728;50.448;18.824;2023-05-18T01:42:20;98481.78;;;9.46;74.42
67397;BME280;57728;50.448;18.824;2023-05-18T01:44:35;98500.16;;;9.57;74.37
67397;BME280;57728;50.448;18.824;2023-05-18T01:49:00;98514.75;;;9.70;74.61
67397;BME280;57728;50.448;18.824;2023-05-18T01:51:11;98515.19;;;9.67;74.67
67397;BME280;57728;50.448;18.824;2023-05-18T01:53:32;98524.78;;;9.69;74.59
67397;BME280;57728;50.448;18.824;2023-05-18T01:55:39;98528.34;;;9.70;75.06
67397;BME280;57728;50.448;18.824;2023-05-18T01:57:47;98473.44;;;9.34;74.80
67397;BME280;57728;50.448;18.824;2023-05-18T01:59:53;98511.00;;;9.64;74.79
67397;BME280;57728;50.448;18.824;2023-05-18T02:01:59;98526.25;;;9.72;74.57
67397;BME280;57728;50.448;18.824;2023-05-18T02:04:01;98390.16;;;8.81;74.61
67397;BME280;57728;50.448;18.824;2023-05-18T02:06:07;98504.97;;;9.55;74.57
67397;BME280;57728;50.448;18.824;2023-05-18T02:08:09;98509.56;;;9.55;74.61
67397;BME280;57728;50.448;18.824;2023-05-18T02:10:10;98526.50;;;9.63;74.57
67397;BME280;57728;50.448;18.824;2023-05-18T02:12:13;98485.56;;;9.32;74.67
67397;BME280;57728;50.448;18.824;2023-05-18T02:14:14;98524.00;;;9.55;74.78
67397;BME280;57728;50.448;18.824;2023-05-18T02:16:15;98534.03;;;9.61;74.71
67397;BME280;57728;50.448;18.824;2023-05-18T02:18:17;98545.31;;;9.65;74.72
67397;BME280;57728;50.448;18.824;2023-05-18T02:20:18;98513.75;;;9.51;74.63
67397;BME280;57728;50.448;18.824;2023-05-18T02:22:20;98502.28;;;9.42;74.48
67397;BME280;57728;50.448;18.824;2023-05-18T02:24:22;98440.47;;;8.97;74.62
67397;BME280;57728;50.448;18.824;2023-05-18T02:26:39;98513.56;;;9.45;74.68
67397;BME280;57728;50.448;18.824;2023-05-18T02:28:56;98531.53;;;9.53;74.71
67397;BME280;57728;50.448;18.824;2023-05-18T02:31:12;98534.84;;;9.55;74.57
67397;BME280;57728;50.448;18.824;2023-05-18T02:33:28;98531.53;;;9.53;74.72
67397;BME280;57728;50.448;18.824;2023-05-18T02:35:51;98539.69;;;9.53;74.75
67397;BME280;57728;50.448;18.824;2023-05-18T02:38:08;98451.94;;;8.99;74.70
67397;BME280;57728;50.448;18.824;2023-05-18T02:40:24;98496.47;;;9.25;74.47
67397;BME280;57728;50.448;18.824;2023-05-18T02:42:41;98541.75;;;9.51;74.37
67397;BME280;57728;50.448;18.824;2023-05-18T02:44:57;98535.50;;;9.44;74.30
67397;BME280;57728;50.448;18.824;2023-05-18T02:47:00;98526.31;;;9.32;74.35
67397;BME280;57728;50.448;18.824;2023-05-18T02:49:01;98513.81;;;9.31;74.25
67397;BME280;57728;50.448;18.824;2023-05-18T02:51:02;98493.53;;;9.13;74.15
67397;BME280;57728;50.448;18.824;2023-05-18T02:53:04;98549.75;;;9.46;74.26
67397;BME280;57728;50.448;18.824;2023-05-18T02:55:06;98549.94;;;9.44;74.19
67397;BME280;57728;50.448;18.824;2023-05-18T02:57:23;98550.34;;;9.41;74.31
67397;BME280;57728;50.448;18.824;2023-05-18T02:59:36;98494.38;;;9.07;74.21
67397;BME280;57728;50.448;18.824;2023-05-18T03:01:41;98508.19;;;9.12;74.08
67397;BME280;57728;50.448;18.824;2023-05-18T03:03:57;98544.94;;;9.28;74.16
67397;BME280;57728;50.448;18.824;2023-05-18T03:06:17;98523.63;;;9.18;74.27
67397;BME280;57728;50.448;18.824;2023-05-18T03:08:38;98557.88;;;9.33;74.27
67397;BME280;57728;50.448;18.824;2023-05-18T03:10:56;98552.66;;;9.24;74.31
67397;BME280;57728;50.448;18.824;2023-05-18T03:13:13;98552.03;;;9.22;74.24
67397;BME280;57728;50.448;18.824;2023-05-18T03:15:30;98529.69;;;9.07;74.23
67397;BME280;57728;50.448;18.824;2023-05-18T03:17:47;98552.25;;;9.21;74.33
67397;BME280;57728;50.448;18.824;2023-05-18T03:20:05;98536.38;;;9.11;74.39
67397;BME280;57728;50.448;18.824;2023-05-18T03:22:22;98567.94;;;9.32;74.37
67397;BME280;57728;50.448;18.824;2023-05-18T03:24:25;98550.78;;;9.18;74.35
67397;BME280;57728;50.448;18.824;2023-05-18T03:26:30;98535.13;;;9.14;74.25
67397;BME280;57728;50.448;18.824;2023-05-18T03:28:32;98562.28;;;9.34;74.21
67397;BME280;57728;50.448;18.824;2023-05-18T03:30:34;98548.69;;;9.20;74.08
67397;BME280;57728;50.448;18.824;2023-05-18T03:32:35;98562.50;;;9.25;74.21
67397;BME280;57728;50.448;18.824;2023-05-18T03:34:37;98534.91;;;9.08;74.17
67397;BME280;57728;50.448;18.824;2023-05-18T03:36:40;98540.34;;;9.15;74.17
67397;BME280;57728;50.448;18.824;2023-05-18T03:38:44;98547.03;;;9.19;74.23
67397;BME280;57728;50.448;18.824;2023-05-18T03:41:01;98538.66;;;9.07;74.07
67397;BME280;57728;50.448;18.824;2023-05-18T03:43:17;98579.19;;;9.36;73.84
67397;BME280;57728;50.448;18.824;2023-05-18T03:45:35;98534.09;;;9.08;74.07
67397;BME280;57728;50.448;18.824;2023-05-18T03:47:51;98585.06;;;9.39;73.95
67397;BME280;57728;50.448;18.824;2023-05-18T03:50:08;98565.84;;;9.27;73.91
67397;BME280;57728;50.448;18.824;2023-05-18T03:52:25;98595.50;;;9.42;73.91
67397;BME280;57728;50.448;18.824;2023-05-18T03:54:41;98586.09;;;9.38;73.95
67397;BME280;57728;50.448;18.824;2023-05-18T03:56:59;98578.16;;;9.37;73.77
67397;BME280;57728;50.448;18.824;2023-05-18T03:59:16;98580.88;;;9.37;73.55
67397;BME280;57728;50.448;18.824;2023-05-18T04:01:32;98603.03;;;9.47;73.49
67397;BME280;57728;50.448;18.824;2023-05-18T04:03:49;98597.38;;;9.49;73.52
67397;BME280;57728;50.448;18.824;2023-05-18T04:06:06;98555.81;;;9.21;73.52
67397;BME280;57728;50.448;18.824;2023-05-18T04:08:26;98612.66;;;9.56;73.69
67397;BME280;57728;50.448;18.824;2023-05-18T04:10:45;98605.13;;;9.52;73.54
67397;BME280;57728;50.448;18.824;2023-05-18T04:13:01;98615.59;;;9.61;73.47
67397;BME280;57728;50.448;18.824;2023-05-18T04:15:17;98580.03;;;9.43;73.41
67397;BME280;57728;50.448;18.824;2023-05-18T04:17:34;98600.94;;;9.62;73.39
67397;BME280;57728;50.448;18.824;2023-05-18T04:19:50;98576.69;;;9.48;73.26
67397;BME280;57728;50.448;18.824;2023-05-18T04:22:06;98594.88;;;9.67;73.48
67397;BME280;57728;50.448;18.824;2023-05-18T04:24:23;98619.53;;;9.79;73.01
67397;BME280;57728;50.448;18.824;2023-05-18T04:26:27;98611.16;;;9.74;73.22
67397;BME280;57728;50.448;18.824;2023-05-18T04:28:30;98607.41;;;9.75;73.00
67397;BME280;57728;50.448;18.824;2023-05-18T04:30:34;98565.41;;;9.51;72.93
67397;BME280;57728;50.448;18.824;2023-05-18T04:32:39;98595.91;;;9.66;72.80
67397;BME280;57728;50.448;18.824;2023-05-18T04:34:42;98613.44;;;9.84;72.79
67397;BME280;57728;50.448;18.824;2023-05-18T04:36:44;98623.91;;;9.93;72.54
67397;BME280;57728;50.448;18.824;2023-05-18T04:38:46;98537.63;;;9.42;72.50
67397;BME280;57728;50.448;18.824;2023-05-18T04:40:51;98631.00;;;10.01;72.58
67397;BME280;57728;50.448;18.824;2023-05-18T04:42:52;98595.28;;;9.77;72.50
67397;BME280;57728;50.448;18.824;2023-05-18T04:44:58;98634.34;;;10.10;72.54
67397;BME280;57728;50.448;18.824;2023-05-18T04:47:00;98612.78;;;10.02;72.43
67397;BME280;57728;50.448;18.824;2023-05-18T04:49:02;98614.66;;;10.08;72.22
67397;BME280;57728;50.448;18.824;2023-05-18T04:51:08;98617.78;;;10.11;71.97
67397;BME280;57728;50.448;18.824;2023-05-18T04:53:10;98633.03;;;10.26;72.13
67397;BME280;57728;50.448;18.824;2023-05-18T04:55:12;98588.31;;;10.02;71.93
67397;BME280;57728;50.448;18.824;2023-05-18T04:57:28;98622.97;;;10.26;71.88
67397;BME280;57728;50.448;18.824;2023-05-18T04:59:29;98638.66;;;10.38;71.82
67397;BME280;57728;50.448;18.824;2023-05-18T05:01:30;98601.19;;;10.26;71.44
67397;BME280;57728;50.448;18.824;2023-05-18T05:03:32;98590.56;;;10.18;71.34
67397;BME280;57728;50.448;18.824;2023-05-18T05:05:34;98612.50;;;10.30;71.26
67397;BME280;57728;50.448;18.824;2023-05-18T05:07:35;98616.28;;;10.36;71.07
67397;BME280;57728;50.448;18.824;2023-05-18T05:09:37;98630.03;;;10.47;71.27
67397;BME280;57728;50.448;18.824;2023-05-18T05:11:39;98620.84;;;10.42;70.90
67397;BME280;57728;50.448;18.824;2023-05-18T05:13:43;98629.22;;;10.47;70.97
67397;BME280;57728;50.448;18.824;2023-05-18T05:15:45;98642.97;;;10.65;70.85
67397;BME280;57728;50.448;18.824;2023-05-18T05:17:47;98609.94;;;10.48;70.78
67397;BME280;57728;50.448;18.824;2023-05-18T05:19:49;98560.59;;;10.25;70.65
67397;BME280;57728;50.448;18.824;2023-05-18T05:21:51;98624.75;;;10.66;70.61
67397;BME280;57728;50.448;18.824;2023-05-18T05:23:53;98638.72;;;10.76;70.59
67397;BME280;57728;50.448;18.824;2023-05-18T05:25:54;98571.38;;;10.52;70.50
67397;BME280;57728;50.448;18.824;2023-05-18T05:27:56;98588.34;;;10.60;70.21
67397;BME280;57728;50.448;18.824;2023-05-18T05:29:58;98591.84;;;10.68;70.13
67397;BME280;57728;50.448;18.824;2023-05-18T05:31:59;98590.19;;;10.66;69.99
67397;BME280;57728;50.448;18.824;2023-05-18T05:34:01;98645.28;;;11.07;69.79
67397;BME280;57728;50.448;18.824;2023-05-18T05:36:03;98649.41;;;11.10;69.53
67397;BME280;57728;50.448;18.824;2023-05-18T05:38:05;98632.72;;;10.99;69.44
67397;BME280;57728;50.448;18.824;2023-05-18T05:40:08;98633.97;;;11.04;69.53
67397;BME280;57728;50.448;18.824;2023-05-18T05:42:15;98631.66;;;11.07;69.43
67397;BME280;57728;50.448;18.824;2023-05-18T05:44:16;98646.41;;;11.25;69.44
67397;BME280;57728;50.448;18.824;2023-05-18T05:46:18;98650.13;;;11.30;69.23
67397;BME280;57728;50.448;18.824;2023-05-18T05:48:20;98631.50;;;11.27;69.05
67397;BME280;57728;50.448;18.824;2023-05-18T05:50:37;98650.06;;;11.44;69.00
67397;BME280;57728;50.448;18.824;2023-05-18T05:52:54;98635.78;;;11.42;68.76
67397;BME280;57728;50.448;18.824;2023-05-18T05:54:58;98638.47;;;11.48;68.40
67397;BME280;57728;50.448;18.824;2023-05-18T05:57:00;98636.56;;;11.49;68.32
67397;BME280;57728;50.448;18.824;2023-05-18T05:59:01;98659.94;;;11.63;68.23
67397;BME280;57728;50.448;18.824;2023-05-18T06:01:03;98660.13;;;11.68;67.69
67397;BME280;57728;50.448;18.824;2023-05-18T06:03:05;98643.16;;;11.66;67.81
67397;BME280;57728;50.448;18.824;2023-05-18T06:05:11;98624.78;;;11.55;66.92
67397;BME280;57728;50.448;18.824;2023-05-18T06:07:13;98646.91;;;11.72;67.22
67397;BME280;57728;50.448;18.824;2023-05-18T06:09:15;98646.59;;;11.80;67.39
67397;BME280;57728;50.448;18.824;2023-05-18T06:11:17;98669.94;;;12.01;67.09
67397;BME280;57728;50.448;18.824;2023-05-18T06:13:19;98666.53;;;12.06;66.63
67397;BME280;57728;50.448;18.824;2023-05-18T06:15:26;98668.59;;;12.11;66.11
67397;BME280;57728;50.448;18.824;2023-05-18T06:17:27;98625.31;;;11.89;66.06
67397;BME280;57728;50.448;18.824;2023-05-18T06:19:31;98646.22;;;12.02;65.82
67397;BME280;57728;50.448;18.824;2023-05-18T06:21:33;98647.72;;;11.98;65.61
67397;BME280;57728;50.448;18.824;2023-05-18T06:23:35;98672.31;;;12.16;65.18
67397;BME280;57728;50.448;18.824;2023-05-18T06:25:37;98614.69;;;11.81;64.71
67397;BME280;57728;50.448;18.824;2023-05-18T06:28:00;98662.50;;;12.09;64.40
67397;BME280;57728;50.448;18.824;2023-05-18T06:30:38;98653.50;;;12.08;64.38
67397;BME280;57728;50.448;18.824;2023-05-18T06:32:47;98679.47;;;12.17;63.97
67397;BME280;57728;50.448;18.824;2023-05-18T06:34:48;98679.22;;;12.19;64.48
67397;BME280;57728;50.448;18.824;2023-05-18T06:36:50;98682.94;;;12.25;63.88
67397;BME280;57728;50.448;18.824;2023-05-18T06:38:52;98682.50;;;12.28;63.90
67397;BME280;57728;50.448;18.824;2023-05-18T06:40:54;98672.69;;;12.20;63.62
67397;BME280;57728;50.448;18.824;2023-05-18T06:42:55;98672.25;;;12.23;63.49
67397;BME280;57728;50.448;18.824;2023-05-18T06:45:20;98687.88;;;12.34;63.11
67397;BME280;57728;50.448;18.824;2023-05-18T06:47:23;98693.78;;;12.31;62.71
67397;BME280;57728;50.448;18.824;2023-05-18T06:49:25;98686.50;;;12.25;62.27
67397;BME280;57728;50.448;18.824;2023-05-18T06:51:47;98689.69;;;12.22;62.02
67397;BME280;57728;50.448;18.824;2023-05-18T06:53:48;98657.38;;;12.00;61.86
67397;BME280;57728;50.448;18.824;2023-05-18T06:56:05;98693.00;;;12.24;61.96
67397;BME280;57728;50.448;18.824;2023-05-18T06:58:21;98663.38;;;12.09;62.03
67397;BME280;57728;50.448;18.824;2023-05-18T07:00:24;98641.41;;;11.97;61.42
67397;BME280;57728;50.448;18.824;2023-05-18T07:02:25;98647.50;;;11.99;61.21
67397;BME280;57728;50.448;18.824;2023-05-18T07:04:27;98675.41;;;12.20;61.42
67397;BME280;57728;50.448;18.824;2023-05-18T07:06:29;98662.75;;;12.07;61.65
67397;BME280;57728;50.448;18.824;2023-05-18T07:08:31;98653.03;;;12.11;61.49
67397;BME280;57728;50.448;18.824;2023-05-18T07:10:33;98684.16;;;12.29;61.30
67397;BME280;57728;50.448;18.824;2023-05-18T07:12:36;98697.50;;;12.37;61.30
67397;BME280;57728;50.448;18.824;2023-05-18T07:14:37;98679.53;;;12.29;60.92
67397;BME280;57728;50.448;18.824;2023-05-18T07:16:38;98695.75;;;12.43;61.24
67397;BME280;57728;50.448;18.824;2023-05-18T07:18:40;98676.97;;;12.34;61.05
67397;BME280;57728;50.448;18.824;2023-05-18T07:20:42;98658.44;;;12.18;60.69
67397;BME280;57728;50.448;18.824;2023-05-18T07:22:43;98679.47;;;12.36;60.90
67397;BME280;57728;50.448;18.824;2023-05-18T07:24:45;98700.94;;;12.51;60.65
67397;BME280;57728;50.448;18.824;2023-05-18T07:26:47;98693.59;;;12.51;60.90
67397;BME280;57728;50.448;18.824;2023-05-18T07:28:48;98653.75;;;12.25;60.81
67397;BME280;57728;50.448;18.824;2023-05-18T07:30:52;98648.91;;;12.27;60.18
67397;BME280;57728;50.448;18.824;2023-05-18T07:32:54;98678.94;;;12.46;60.16
67397;BME280;57728;50.448;18.824;2023-05-18T07:34:56;98687.44;;;12.56;60.34
67397;BME280;57728;50.448;18.824;2023-05-18T07:36:58;98628.13;;;12.26;60.13
67397;BME280;57728;50.448;18.824;2023-05-18T07:38:59;98652.28;;;12.41;59.90
67397;BME280;57728;50.448;18.824;2023-05-18T07:41:00;98685.00;;;12.66;59.81
67397;BME280;57728;50.448;18.824;2023-05-18T07:43:23;98706.25;;;12.83;59.92
67397;BME280;57728;50.448;18.824;2023-05-18T07:45:25;98720.19;;;12.93;59.88
67397;BME280;57728;50.448;18.824;2023-05-18T07:47:26;98699.78;;;12.96;59.90
67397;BME280;57728;50.448;18.824;2023-05-18T07:49:28;98690.06;;;13.00;59.55
67397;BME280;57728;50.448;18.824;2023-05-18T07:51:29;98718.91;;;13.26;58.95
67397;BME280;57728;50.448;18.824;2023-05-18T07:53:31;98702.50;;;13.26;58.44
67397;BME280;57728;50.448;18.824;2023-05-18T07:55:33;98722.72;;;13.44;58.17
67397;BME280;57728;50.448;18.824;2023-05-18T07:57:34;98724.19;;;13.58;58.62
67397;BME280;57728;50.448;18.824;2023-05-18T07:59:36;98714.06;;;13.58;58.27
67397;BME280;57728;50.448;18.824;2023-05-18T08:01:38;98720.53;;;13.76;57.92
67397;BME280;57728;50.448;18.824;2023-05-18T08:03:39;98717.63;;;14.01;57.63
67397;BME280;57728;50.448;18.824;2023-05-18T08:05:41;98727.25;;;14.16;57.01
67397;BME280;57728;50.448;18.824;2023-05-18T08:07:43;98726.09;;;14.35;57.26
67397;BME280;57728;50.448;18.824;2023-05-18T08:09:44;98719.75;;;14.47;56.54
67397;BME280;57728;50.448;18.824;2023-05-18T08:11:45;98690.81;;;14.39;56.40
67397;BME280;57728;50.448;18.824;2023-05-18T08:13:48;98667.72;;;14.47;55.92
67397;BME280;57728;50.448;18.824;2023-05-18T08:15:50;98691.63;;;14.75;55.66
67397;BME280;57728;50.448;18.824;2023-05-18T08:17:51;98709.09;;;14.98;55.36
67397;BME280;57728;50.448;18.824;2023-05-18T08:19:53;98702.50;;;15.10;54.71
67397;BME280;57728;50.448;18.824;2023-05-18T08:21:55;98723.09;;;15.42;55.10
67397;BME280;57728;50.448;18.824;2023-05-18T08:23:56;98692.09;;;15.41;54.67
67397;BME280;57728;50.448;18.824;2023-05-18T08:25:58;98690.72;;;15.56;54.43
67397;BME280;57728;50.448;18.824;2023-05-18T08:28:00;98718.06;;;15.79;53.45
67397;BME280;57728;50.448;18.824;2023-05-18T08:30:02;98702.94;;;15.65;52.89
67397;BME280;57728;50.448;18.824;2023-05-18T08:32:05;98725.44;;;15.79;52.83
67397;BME280;57728;50.448;18.824;2023-05-18T08:34:07;98695.81;;;15.64;51.52
67397;BME280;57728;50.448;18.824;2023-05-18T08:36:08;98707.94;;;15.68;52.48
67397;BME280;57728;50.448;18.824;2023-05-18T08:38:10;98661.81;;;15.36;52.19
67397;BME280;57728;50.448;18.824;2023-05-18T08:40:12;98703.19;;;15.63;51.60
67397;BME280;57728;50.448;18.824;2023-05-18T08:42:21;98723.56;;;15.68;51.46
67397;BME280;57728;50.448;18.824;2023-05-18T08:44:29;98688.84;;;15.44;51.29
67397;BME280;57728;50.448;18.824;2023-05-18T08:46:49;98709.66;;;15.57;51.26
67397;BME280;57728;50.448;18.824;2023-05-18T08:48:51;98691.09;;;15.47;51.15
67397;BME280;57728;50.448;18.824;2023-05-18T08:50:57;98711.09;;;15.60;51.51
67397;BME280;57728;50.448;18.824;2023-05-18T08:53:01;98715.59;;;15.66;50.58
67397;BME280;57728;50.448;18.824;2023-05-18T08:55:06;98724.59;;;15.78;51.43
67397;BME280;57728;50.448;18.824;2023-05-18T08:57:15;98704.28;;;15.62;51.09
67397;BME280;57728;50.448;18.824;2023-05-18T08:59:26;98729.72;;;15.75;50.91
67397;BME280;57728;50.448;18.824;2023-05-18T09:01:31;98726.16;;;15.74;50.64
67397;BME280;57728;50.448;18.824;2023-05-18T09:03:33;98732.41;;;15.70;50.85
67397;BME280;57728;50.448;18.824;2023-05-18T09:05:36;98708.00;;;15.56;50.73
67397;BME280;57728;50.448;18.824;2023-05-18T09:07:40;98732.72;;;15.73;50.74
67397;BME280;57728;50.448;18.824;2023-05-18T09:09:45;98729.91;;;15.68;50.24
67397;BME280;57728;50.448;18.824;2023-05-18T09:11:48;98641.91;;;15.12;50.70
67397;BME280;57728;50.448;18.824;2023-05-18T09:13:51;98730.31;;;15.60;50.43
67397;BME280;57728;50.448;18.824;2023-05-18T09:15:56;98726.38;;;15.56;50.23
67397;BME280;57728;50.448;18.824;2023-05-18T09:17:57;98696.31;;;15.32;50.16
67397;BME280;57728;50.448;18.824;2023-05-18T09:19:58;98724.13;;;15.53;50.08
67397;BME280;57728;50.448;18.824;2023-05-18T09:22:00;98688.94;;;15.33;49.62
67397;BME280;57728;50.448;18.824;2023-05-18T09:24:02;98704.66;;;15.37;49.82
67397;BME280;57728;50.448;18.824;2023-05-18T09:26:04;98696.31;;;15.32;49.69
67397;BME280;57728;50.448;18.824;2023-05-18T09:28:07;98726.34;;;15.39;49.62
67397;BME280;57728;50.448;18.824;2023-05-18T09:30:11;98715.44;;;15.27;50.09
67397;BME280;57728;50.448;18.824;2023-05-18T09:32:13;98731.16;;;15.32;49.91
67397;BME280;57728;50.448;18.824;2023-05-18T09:34:15;98669.16;;;14.90;50.07
67397;BME280;57728;50.448;18.824;2023-05-18T09:36:34;98727.38;;;15.21;50.18
67397;BME280;57728;50.448;18.824;2023-05-18T09:38:51;98731.66;;;15.17;50.26
67397;BME280;57728;50.448;18.824;2023-05-18T09:41:09;98745.38;;;15.17;49.95
67397;BME280;57728;50.448;18.824;2023-05-18T09:43:27;98745.31;;;15.11;49.82
67397;BME280;57728;50.448;18.824;2023-05-18T09:45:45;98735.09;;;14.95;49.75
67397;BME280;57728;50.448;18.824;2023-05-18T09:47:50;98718.31;;;14.79;50.02
67397;BME280;57728;50.448;18.824;2023-05-18T09:49:51;98723.53;;;14.81;50.08
67397;BME280;57728;50.448;18.824;2023-05-18T09:51:53;98753.56;;;14.88;49.98
67397;BME280;57728;50.448;18.824;2023-05-18T09:53:57;98735.13;;;14.71;50.42
67397;BME280;57728;50.448;18.824;2023-05-18T09:56:03;98743.09;;;14.73;50.33
67397;BME280;57728;50.448;18.824;2023-05-18T09:58:07;98687.94;;;14.45;50.04
67397;BME280;57728;50.448;18.824;2023-05-18T10:00:11;98733.06;;;14.78;50.26
67397;BME280;57728;50.448;18.824;2023-05-18T10:02:17;98711.63;;;14.75;50.24
67397;BME280;57728;50.448;18.824;2023-05-18T10:04:19;98742.69;;;14.93;50.01
67397;BME280;57728;50.448;18.824;2023-05-18T10:06:25;98737.56;;;14.96;50.01
67397;BME280;57728;50.448;18.824;2023-05-18T10:08:27;98722.47;;;14.82;49.68
67397;BME280;57728;50.448;18.824;2023-05-18T10:10:31;98694.13;;;14.53;49.41
67397;BME280;57728;50.448;18.824;2023-05-18T10:12:38;98745.47;;;14.81;49.46
67397;BME280;57728;50.448;18.824;2023-05-18T10:14:43;98744.03;;;14.78;49.37
67397;BME280;57728;50.448;18.824;2023-05-18T10:16:45;98722.38;;;14.65;49.91
67397;BME280;57728;50.448;18.824;2023-05-18T10:18:48;98681.16;;;14.36;50.11
67397;BME280;57728;50.448;18.824;2023-05-18T10:20:56;98744.41;;;14.70;50.71
67397;BME280;57728;50.448;18.824;2023-05-18T10:23:04;98720.56;;;14.59;50.41
67397;BME280;57728;50.448;18.824;2023-05-18T10:25:10;98727.13;;;14.58;50.10
67397;BME280;57728;50.448;18.824;2023-05-18T10:27:15;98644.75;;;14.12;50.43
67397;BME280;57728;50.448;18.824;2023-05-18T10:29:18;98716.19;;;14.58;50.81
67397;BME280;57728;50.448;18.824;2023-05-18T10:31:22;98680.47;;;14.41;51.06
67397;BME280;57728;50.448;18.824;2023-05-18T10:33:40;98736.88;;;14.89;51.20
67397;BME280;57728;50.448;18.824;2023-05-18T10:36:02;98722.19;;;14.95;51.39
67397;BME280;57728;50.448;18.824;2023-05-18T10:38:27;98699.94;;;14.92;50.78
67397;BME280;57728;50.448;18.824;2023-05-18T10:40:43;98735.66;;;15.09;50.51
67397;BME280;57728;50.448;18.824;2023-05-18T10:43:03;98729.31;;;15.08;50.00
67397;BME280;57728;50.448;18.824;2023-05-18T10:45:20;98734.09;;;15.01;49.60
67397;BME280;57728;50.448;18.824;2023-05-18T10:47:38;98731.72;;;15.05;49.58
67397;BME280;57728;50.448;18.824;2023-05-18T10:49:58;98720.75;;;15.05;49.50
67397;BME280;57728;50.448;18.824;2023-05-18T10:52:19;98707.03;;;15.05;49.70
67397;BME280;57728;50.448;18.824;2023-05-18T10:54:25;98731.91;;;15.27;49.84
67397;BME280;57728;50.448;18.824;2023-05-18T10:56:27;98724.09;;;15.36;49.03
67397;BME280;57728;50.448;18.824;2023-05-18T10:58:30;98713.13;;;15.36;49.38
67397;BME280;57728;50.448;18.824;2023-05-18T11:00:35;98713.06;;;15.47;49.07
67397;BME280;57728;50.448;18.824;2023-05-18T11:02:40;98681.19;;;15.46;48.99
67397;BME280;57728;50.448;18.824;2023-05-18T11:04:44;98720.91;;;15.73;48.94
67397;BME280;57728;50.448;18.824;2023-05-18T11:06:54;98715.69;;;15.71;48.27
67397;BME280;57728;50.448;18.824;2023-05-18T11:08:58;98701.00;;;15.48;47.70
67397;BME280;57728;50.448;18.824;2023-05-18T11:11:04;98719.75;;;15.69;48.20
67397;BME280;57728;50.448;18.824;2023-05-18T11:13:09;98700.41;;;15.46;48.35